Time;durP1;ratioP1;P1;durP2;ratioP2;P2;SDS_P1;SDS_P2;PMS_P1;PMS_P2;Temp;Humidity;BMP_temperature;BMP_pressure;BME280_temperature;BME280_humidity;BME280_pressure;Samples;Min_cycle;Max_cycle;Signal;HPM_P1;HPM_P2
2023/01/04 00:01:08;;;;;;;0.50;0.50;;;;;;;1.94;98.23;100964.72;5026695;28;20026;-76
2023/01/04 00:03:34;;;;;;;0.60;0.60;;;;;;;1.95;98.11;100976.75;5026607;28;20029;-76
2023/01/04 00:06:03;;;;;;;0.50;0.50;;;;;;;1.86;98.42;100964.47;5026896;28;20037;-74
2023/01/04 00:08:30;;;;;;;0.60;0.60;;;;;;;1.85;98.19;100955.03;5026265;28;20017;-74
2023/01/04 00:11:03;;;;;;;0.50;0.50;;;;;;;1.92;98.15;100961.22;5026373;28;20022;-74
2023/01/04 00:13:30;;;;;;;0.50;0.50;;;;;;;1.94;97.67;100947.69;5025946;28;20118;-74
2023/01/04 00:15:56;;;;;;;0.50;0.50;;;;;;;1.97;97.54;100936.66;5041647;28;20026;-73
2023/01/04 00:18:22;;;;;;;0.50;0.50;;;;;;;1.97;97.45;100945.25;5041318;28;20030;-73
2023/01/04 00:20:47;;;;;;;0.50;0.50;;;;;;;2.06;96.95;100938.69;5026334;28;20093;-72
2023/01/04 00:23:12;;;;;;;0.50;0.50;;;;;;;1.91;97.35;100909.16;5026034;28;20034;-73
2023/01/04 00:25:38;;;;;;;0.50;0.50;;;;;;;2.02;97.52;100911.22;5026222;28;20024;-73
2023/01/04 00:28:04;;;;;;;0.50;0.50;;;;;;;1.99;97.20;100909.44;5025910;28;20025;-73
2023/01/04 00:30:29;;;;;;;0.95;0.95;;;;;;;2.21;96.38;100905.03;5026340;28;20021;-72
2023/01/04 00:32:56;;;;;;;0.70;0.70;;;;;;;1.94;96.99;100898.16;5040857;28;20026;-72
2023/01/04 00:35:21;;;;;;;0.40;0.40;;;;;;;1.94;97.57;100893.91;5026015;28;20064;-73
2023/01/04 00:37:47;;;;;;;0.50;0.50;;;;;;;2.03;97.39;100895.06;5025884;28;20073;-72
2023/01/04 00:40:12;;;;;;;0.50;0.50;;;;;;;2.09;97.28;100883.31;5040677;28;20022;-71
2023/01/04 00:42:38;;;;;;;0.47;0.47;;;;;;;2.09;96.99;100879.91;5026060;28;20040;-72
2023/01/04 00:45:03;;;;;;;0.50;0.50;;;;;;;1.96;97.02;100863.22;5025796;28;20028;-73
2023/01/04 00:47:29;;;;;;;0.50;0.50;;;;;;;2.12;97.15;100872.31;5025825;28;20041;-74
2023/01/04 00:49:54;;;;;;;0.50;0.50;;;;;;;2.08;97.05;100866.22;5025703;28;20022;-74
2023/01/04 00:52:19;;;;;;;0.50;0.50;;;;;;;2.01;97.48;100863.38;5025741;28;20037;-74
2023/01/04 00:54:45;;;;;;;0.50;0.50;;;;;;;2.02;97.64;100868.56;5024097;28;20022;-72
2023/01/04 00:57:10;;;;;;;0.40;0.40;;;;;;;2.17;96.56;100855.38;5025452;28;20018;-72
2023/01/04 00:59:36;;;;;;;0.50;0.50;;;;;;;2.09;96.52;100854.28;5025480;28;20080;-74
2023/01/04 01:02:01;;;;;;;0.73;0.73;;;;;;;2.03;97.05;100841.28;5025753;28;20032;-74
2023/01/04 01:04:26;;;;;;;31.08;4.60;;;;;;;2.08;96.16;100842.28;5025498;28;20172;-73
2023/01/04 01:06:52;;;;;;;0.50;0.50;;;;;;;2.26;95.44;100844.59;5025651;28;20021;-74
2023/01/04 01:09:21;;;;;;;0.60;0.60;;;;;;;2.08;95.74;100834.59;5025504;28;20056;-72
2023/01/04 01:11:47;;;;;;;0.50;0.50;;;;;;;2.00;96.15;100823.25;5025437;28;20030;-74
2023/01/04 01:14:17;;;;;;;0.50;0.50;;;;;;;2.04;96.57;100825.97;5025818;28;20079;-71
2023/01/04 01:16:43;;;;;;;0.50;0.50;;;;;;;2.01;95.90;100822.41;5025472;28;20048;-75
2023/01/04 01:19:09;;;;;;;0.40;0.40;;;;;;;2.14;95.02;100816.00;5025276;28;20033;-75
2023/01/04 01:21:34;;;;;;;0.50;0.50;;;;;;;1.98;95.72;100818.91;5025110;28;20022;-72
2023/01/04 01:24:00;;;;;;;0.50;0.50;;;;;;;2.03;95.55;100821.63;5040659;28;20474;-72
2023/01/04 01:26:25;;;;;;;0.45;0.45;;;;;;;2.03;95.52;100802.84;5024912;28;20029;-73
2023/01/04 01:28:51;;;;;;;0.52;0.52;;;;;;;2.07;95.36;100803.00;5024970;28;20018;-72
2023/01/04 01:31:23;;;;;;;0.60;0.60;;;;;;;1.85;95.98;100798.84;5025115;28;20026;-73
2023/01/04 01:33:50;;;;;;;0.70;0.70;;;;;;;2.13;94.92;100796.31;5025054;28;20022;-71
2023/01/04 01:36:17;;;;;;;2.08;1.73;;;;;;;1.90;94.93;100773.41;5025155;28;20073;-73
2023/01/04 01:38:43;;;;;;;3.15;2.97;;;;;;;1.92;94.94;100764.94;5025001;28;20022;-74
2023/01/04 01:41:18;;;;;;;0.63;0.63;;;;;;;2.14;94.34;100768.19;5024795;28;20026;-72
2023/01/04 01:44:04;;;;;;;0.50;0.50;;;;;;;2.06;94.50;100767.09;5025088;28;20026;-73
2023/01/04 01:46:38;;;;;;;0.55;0.55;;;;;;;1.92;94.64;100754.69;5024861;28;20042;-74
2023/01/04 01:49:22;;;;;;;0.50;0.50;;;;;;;2.23;93.84;100762.50;5025033;28;20022;-71
2023/01/04 01:51:48;;;;;;;0.50;0.50;;;;;;;2.07;93.57;100746.66;5025141;28;20022;-72
2023/01/04 01:54:19;;;;;;;0.50;0.50;;;;;;;2.11;93.69;100750.16;5025163;28;20026;-72
2023/01/04 01:56:48;;;;;;;0.50;0.50;;;;;;;2.26;92.90;100741.22;5025068;28;20045;-71
2023/01/04 01:59:15;;;;;;;0.50;0.50;;;;;;;2.19;92.59;100740.19;5024687;28;20094;-74
2023/01/04 02:01:41;;;;;;;0.50;0.50;;;;;;;2.18;93.05;100726.50;5025029;28;20025;-73
2023/01/04 02:04:07;;;;;;;0.50;0.50;;;;;;;2.22;93.04;100714.66;5025229;28;20050;-74
2023/01/04 02:06:38;;;;;;;0.50;0.50;;;;;;;1.91;94.35;100690.63;5025149;28;20101;-73
2023/01/04 02:09:03;;;;;;;0.50;0.50;;;;;;;2.11;93.86;100701.50;5024904;28;20081;-72
2023/01/04 02:11:29;;;;;;;0.50;0.50;;;;;;;2.16;93.10;100701.63;5024347;28;20053;-72
2023/01/04 02:16:55;;;;;;;0.50;0.50;;;;;;;2.23;92.97;100686.53;5024368;28;20037;-72
2023/01/04 02:19:41;;;;;;;0.60;0.60;;;;;;;2.28;92.50;100680.66;5024661;28;20089;-73
2023/01/04 02:22:12;;;;;;;0.50;0.50;;;;;;;2.29;91.96;100684.94;5024788;28;20026;-73
2023/01/04 02:25:02;;;;;;;0.60;0.60;;;;;;;2.35;91.96;100688.56;5024836;28;20490;-71
2023/01/04 02:27:33;;;;;;;0.50;0.50;;;;;;;2.22;92.18;100669.41;5024714;28;20029;-72
2023/01/04 02:30:17;;;;;;;0.60;0.60;;;;;;;2.27;91.98;100653.31;5039918;28;20026;-73
2023/01/04 02:33:03;;;;;;;0.40;0.40;;;;;;;2.40;91.26;100636.56;5024712;28;20017;-71
2023/01/04 02:35:32;;;;;;;0.50;0.50;;;;;;;2.33;91.33;100640.69;5025448;28;20107;-71
2023/01/04 02:38:18;;;;;;;0.50;0.50;;;;;;;2.29;91.40;100638.84;5028021;28;20104;-73
2023/01/04 02:40:52;;;;;;;0.50;0.50;;;;;;;2.41;90.78;100626.38;5027934;28;20045;-70
2023/01/04 02:46:29;;;;;;;0.60;0.60;;;;;;;2.33;91.35;100609.94;5028412;28;20064;-75
2023/01/04 02:51:42;;;;;;;0.50;0.50;;;;;;;2.26;90.86;100593.50;5028021;28;20053;-73
2023/01/04 02:54:15;;;;;;;0.50;0.50;;;;;;;2.15;90.94;100585.50;5028005;28;20025;-73
2023/01/04 02:56:43;;;;;;;0.50;0.50;;;;;;;2.32;90.99;100585.13;5027673;28;20494;-71
2023/01/04 02:59:19;;;;;;;0.50;0.50;;;;;;;2.20;91.27;100572.84;5027410;28;20026;-72
2023/01/04 03:08:04;;;;;;;0.50;0.50;;;;;;;2.13;90.25;100533.38;5025460;28;20044;-72
2023/01/04 03:10:53;;;;;;;0.50;0.50;;;;;;;1.91;91.55;100519.97;5024998;28;20046;-74
2023/01/04 03:13:29;;;;;;;0.50;0.50;;;;;;;2.06;91.58;100510.97;5025324;28;20453;-72
2023/01/04 03:16:08;;;;;;;0.40;0.40;;;;;;;1.85;92.11;100509.53;5025155;28;20062;-72
2023/01/04 03:18:39;;;;;;;0.50;0.50;;;;;;;2.15;91.39;100501.00;5025064;28;20136;-73
2023/01/04 03:21:08;;;;;;;0.50;0.50;;;;;;;2.12;91.22;100492.34;5024981;28;20030;-72
2023/01/04 03:35:26;;;;;;;0.50;0.50;;;;;;;1.65;93.77;100450.94;5025128;28;20052;-71
2023/01/04 03:50:05;;;;;;;1.17;1.17;;;;;;;1.52;95.59;100387.44;5026882;28;20033;-71
2023/01/04 03:52:33;;;;;;;0.60;0.60;;;;;;;1.83;93.64;100398.53;5026818;28;20041;-74
2023/01/04 03:55:02;;;;;;;0.50;0.50;;;;;;;1.71;94.54;100394.81;5026580;28;20029;-71
2023/01/04 03:57:28;;;;;;;0.50;0.50;;;;;;;1.79;94.69;100391.59;5026709;28;20030;-72
2023/01/04 04:00:01;;;;;;;0.80;0.80;;;;;;;1.97;93.46;100376.72;5026274;28;20066;-73
2023/01/04 04:02:31;;;;;;;0.50;0.50;;;;;;;1.72;93.89;100373.53;5026843;28;20382;-73
2023/01/04 04:10:25;;;;;;;0.50;0.50;;;;;;;1.65;94.55;100351.13;5026356;28;20052;-71
2023/01/04 04:12:51;;;;;;;0.50;0.50;;;;;;;1.59;95.47;100343.28;5041725;28;20022;-70
2023/01/04 04:15:17;;;;;;;0.50;0.50;;;;;;;1.90;93.17;100333.84;5041887;28;20085;-70
2023/01/04 04:17:42;;;;;;;0.50;0.50;;;;;;;1.80;94.18;100322.53;5025897;28;20037;-71
2023/01/04 04:20:08;;;;;;;0.50;0.50;;;;;;;1.63;95.05;100305.84;5026322;28;20053;-73
2023/01/04 04:22:34;;;;;;;0.50;0.50;;;;;;;1.70;95.01;100315.41;5026175;28;20113;-77
2023/01/04 04:24:59;;;;;;;0.50;0.50;;;;;;;1.76;94.79;100297.66;5041327;28;20029;-73
2023/01/04 04:27:25;;;;;;;0.50;0.50;;;;;;;1.68;95.82;100302.56;5026187;28;20030;-73
2023/01/04 04:29:50;;;;;;;0.50;0.50;;;;;;;1.90;94.76;100294.59;5026107;28;20018;-71
2023/01/04 04:32:16;;;;;;;0.50;0.50;;;;;;;1.83;94.23;100265.41;5026170;28;20026;-70
2023/01/04 04:34:41;;;;;;;0.50;0.50;;;;;;;1.77;94.93;100271.25;5026101;28;20026;-71
2023/01/04 04:37:06;;;;;;;0.50;0.50;;;;;;;1.80;95.00;100265.34;5025801;28;20057;-71
2023/01/04 04:39:32;;;;;;;0.50;0.50;;;;;;;1.93;95.53;100241.75;5025937;28;20032;-75
2023/01/04 04:41:57;;;;;;;0.50;0.50;;;;;;;2.10;93.47;100244.75;5025902;28;20607;-73
2023/01/04 04:44:23;;;;;;;0.50;0.50;;;;;;;1.89;94.62;100244.19;5041512;28;20048;-72
2023/01/04 04:46:48;;;;;;;0.50;0.50;;;;;;;1.85;95.22;100218.53;5025926;28;20090;-75
2023/01/04 04:49:15;;;;;;;0.50;0.50;;;;;;;1.96;94.39;100213.69;5041103;28;20084;-75
2023/01/04 04:51:42;;;;;;;0.50;0.50;;;;;;;1.81;95.23;100206.50;5025440;28;20021;-72
2023/01/04 04:54:09;;;;;;;0.50;0.50;;;;;;;1.59;96.45;100194.84;5025876;28;20032;-71
2023/01/04 04:56:38;;;;;;;0.50;0.50;;;;;;;1.68;96.58;100195.09;5025590;28;20029;-71
2023/01/04 04:59:03;;;;;;;0.50;0.50;;;;;;;1.65;97.14;100194.13;5025249;28;20026;-72
2023/01/04 05:01:29;;;;;;;0.50;0.50;;;;;;;1.87;95.78;100190.41;5025716;28;20026;-73
2023/01/04 05:03:55;;;;;;;0.50;0.50;;;;;;;1.78;96.62;100185.94;5025585;28;20026;-73
2023/01/04 05:06:20;;;;;;;0.50;0.50;;;;;;;1.71;96.35;100177.25;5025632;28;20116;-77
2023/01/04 05:08:46;;;;;;;0.50;0.50;;;;;;;1.70;96.86;100172.97;5025506;28;20026;-76
2023/01/04 05:11:12;;;;;;;0.50;0.50;;;;;;;1.61;97.35;100152.28;5025455;28;20026;-76
2023/01/04 05:13:38;;;;;;;0.50;0.50;;;;;;;1.64;97.56;100152.34;5025507;28;20033;-76
2023/01/04 05:16:05;;;;;;;0.50;0.50;;;;;;;1.80;95.18;100121.97;5025612;28;20034;-74
2023/01/04 05:18:31;;;;;;;0.45;0.45;;;;;;;1.84;95.59;100136.56;5025157;28;20034;-75
2023/01/04 05:20:56;;;;;;;0.65;0.65;;;;;;;1.76;96.17;100130.44;5025856;28;20064;-75
2023/01/04 05:23:22;;;;;;;0.50;0.50;;;;;;;1.78;95.44;100114.28;5023844;28;20022;-76
2023/01/04 05:25:51;;;;;;;0.50;0.50;;;;;;;1.72;96.40;100120.13;5025074;28;20083;-74
2023/01/04 05:28:17;;;;;;;0.50;0.50;;;;;;;1.81;96.20;100090.41;5025065;28;20528;-74
2023/01/04 05:30:54;;;;;;;1.17;1.13;;;;;;;1.78;96.21;100093.78;5025242;28;20022;-75
2023/01/04 05:33:24;;;;;;;0.50;0.50;;;;;;;1.82;96.58;100077.66;5025369;28;20026;-72
2023/01/04 05:35:51;;;;;;;0.50;0.50;;;;;;;1.65;97.08;100061.06;5024982;28;20037;-73
2023/01/04 05:38:17;;;;;;;0.50;0.50;;;;;;;2.08;95.31;100056.00;5024888;28;20041;-74
2023/01/04 05:40:43;;;;;;;0.50;0.50;;;;;;;1.80;95.82;100045.19;5025047;28;20086;-75
2023/01/04 05:43:09;;;;;;;1.15;1.15;;;;;;;1.73;96.47;100039.94;5025459;28;20025;-74
2023/01/04 05:45:34;;;;;;;0.50;0.50;;;;;;;1.70;97.08;100034.75;5025099;28;20033;-75
2023/01/04 05:48:00;;;;;;;0.50;0.50;;;;;;;1.67;97.03;100013.34;5025543;28;20036;-71
2023/01/04 05:50:25;;;;;;;0.50;0.50;;;;;;;1.66;97.17;100009.91;5024892;28;20029;-74
2023/01/04 05:52:51;;;;;;;0.47;0.47;;;;;;;1.62;97.82;100008.13;5025347;28;20037;-72
2023/01/04 05:55:17;;;;;;;0.50;0.50;;;;;;;1.71;97.29;99998.09;5025041;28;20022;-73
2023/01/04 05:57:43;;;;;;;0.57;0.57;;;;;;;1.59;98.01;99988.47;5024885;28;20025;-73
2023/01/04 06:00:09;;;;;;;0.50;0.50;;;;;;;1.80;96.71;99994.00;5024819;28;20478;-72
2023/01/04 06:02:35;;;;;;;0.50;0.50;;;;;;;1.90;94.96;99983.09;5024995;28;20033;-71
2023/01/04 06:05:01;;;;;;;0.50;0.50;;;;;;;1.68;95.52;99969.88;5024780;28;20030;-72
2023/01/04 06:07:27;;;;;;;0.50;0.50;;;;;;;1.80;95.31;99945.38;5025062;28;20022;-71
2023/01/04 06:09:53;;;;;;;0.50;0.50;;;;;;;1.92;93.93;99958.41;5024767;28;20021;-71
2023/01/04 06:12:18;;;;;;;0.50;0.50;;;;;;;1.54;95.71;99943.13;5028560;28;20081;-71
2023/01/04 06:14:44;;;;;;;0.50;0.50;;;;;;;1.85;94.38;99934.38;5029024;28;20030;-70
2023/01/04 06:17:10;;;;;;;0.50;0.50;;;;;;;1.52;95.40;99932.00;5028798;28;20119;-72
2023/01/04 06:19:35;;;;;;;0.50;0.50;;;;;;;1.44;95.62;99917.34;5043786;28;20054;-72
2023/01/04 06:22:01;;;;;;;0.50;0.50;;;;;;;1.29;96.67;99909.34;5028422;28;20078;-72
2023/01/04 06:24:26;;;;;;;0.50;0.50;;;;;;;1.42;96.34;99910.47;5028703;28;20025;-72
2023/01/04 06:26:52;;;;;;;0.50;0.50;;;;;;;1.32;96.92;99899.19;5028251;28;20022;-71
2023/01/04 06:29:17;;;;;;;0.50;0.50;;;;;;;1.75;94.16;99885.53;5028252;28;20025;-70
2023/01/04 06:31:44;;;;;;;0.50;0.50;;;;;;;1.32;94.92;99883.84;5028558;28;20470;-71
2023/01/04 06:34:13;;;;;;;0.50;0.50;;;;;;;1.31;95.43;99871.91;5028164;28;20030;-71
2023/01/04 06:36:40;;;;;;;1.05;1.05;;;;;;;1.45;95.75;99869.63;5028054;28;20081;-71
2023/01/04 06:39:06;;;;;;;0.52;0.52;;;;;;;1.46;94.67;99861.97;5028205;28;20029;-71
2023/01/04 06:41:31;;;;;;;0.50;0.50;;;;;;;1.37;94.71;99861.78;5028160;28;20085;-72
2023/01/04 06:43:57;;;;;;;0.50;0.50;;;;;;;1.17;95.12;99859.66;5028229;28;20018;-73
2023/01/04 06:46:22;;;;;;;0.50;0.50;;;;;;;1.03;96.12;99843.16;5028192;28;20022;-72
2023/01/04 06:48:48;;;;;;;0.50;0.50;;;;;;;1.09;96.10;99833.06;5027914;28;20041;-72
2023/01/04 06:51:13;;;;;;;0.50;0.50;;;;;;;1.01;96.10;99829.50;5028066;28;20018;-73
2023/01/04 06:53:39;;;;;;;0.50;0.50;;;;;;;0.98;96.38;99815.81;5028044;28;20022;-72
2023/01/04 06:56:05;;;;;;;0.50;0.50;;;;;;;0.97;95.87;99809.00;5027783;28;20026;-72
2023/01/04 06:58:30;;;;;;;0.50;0.50;;;;;;;0.84;96.69;99812.09;5027694;28;20026;-71
2023/01/04 07:00:56;;;;;;;0.60;0.60;;;;;;;0.76;97.48;99803.41;5028083;28;20082;-71
2023/01/04 07:03:21;;;;;;;0.50;0.50;;;;;;;0.91;97.01;99796.06;5027992;28;20038;-70
2023/01/04 07:05:47;;;;;;;0.50;0.50;;;;;;;1.18;94.19;99792.34;5028009;28;20441;-71
2023/01/04 07:08:13;;;;;;;0.50;0.50;;;;;;;0.78;95.01;99768.53;5028061;28;20025;-72
2023/01/04 07:10:39;;;;;;;0.50;0.50;;;;;;;0.60;96.54;99774.97;5027736;28;20022;-71
2023/01/04 07:13:05;;;;;;;0.50;0.50;;;;;;;0.64;96.81;99781.00;5027648;28;20061;-72
2023/01/04 07:15:30;;;;;;;0.50;0.50;;;;;;;0.64;96.81;99763.13;5042911;28;20033;-71
2023/01/04 07:17:56;;;;;;;0.50;0.50;;;;;;;0.58;97.43;99768.94;5027731;28;20022;-71
2023/01/04 07:20:21;;;;;;;0.50;0.50;;;;;;;0.65;97.12;99763.16;5042718;28;20021;-72
2023/01/04 07:22:47;;;;;;;0.45;0.45;;;;;;;0.57;97.70;99755.34;5027200;28;20022;-72
2023/01/04 07:25:12;;;;;;;0.50;0.50;;;;;;;0.68;97.14;99752.13;5027596;28;20033;-71
2023/01/04 07:27:38;;;;;;;0.50;0.50;;;;;;;0.61;96.71;99743.47;5027501;28;20467;-71
2023/01/04 07:30:03;;;;;;;0.50;0.50;;;;;;;0.61;95.94;99728.13;5027438;28;20033;-71
2023/01/04 07:32:29;;;;;;;0.50;0.50;;;;;;;0.51;96.13;99728.78;5027406;28;20110;-72
2023/01/04 07:34:54;;;;;;;0.50;0.50;;;;;;;0.48;95.92;99719.34;5027568;28;20080;-71
2023/01/04 07:37:20;;;;;;;0.50;0.50;;;;;;;0.55;95.27;99715.25;5026947;28;20105;-71
2023/01/04 07:39:47;;;;;;;0.50;0.50;;;;;;;0.32;96.15;99713.91;5027354;28;20063;-72
2023/01/04 07:42:12;;;;;;;0.50;0.50;;;;;;;0.40;96.32;99703.84;5027276;28;20025;-70
2023/01/04 07:44:38;;;;;;;0.50;0.50;;;;;;;0.25;97.03;99699.28;5032188;28;20109;-73
2023/01/04 07:47:04;;;;;;;0.50;0.50;;;;;;;0.28;98.08;99691.69;5032317;28;20018;-71
2023/01/04 07:49:29;;;;;;;0.50;0.50;;;;;;;0.21;98.33;99684.72;5027150;28;20093;-72
2023/01/04 07:51:54;;;;;;;0.50;0.50;;;;;;;0.29;98.07;99677.25;5026900;28;20045;-71
2023/01/04 07:54:20;;;;;;;0.50;0.50;;;;;;;0.16;98.51;99656.53;5027362;28;20029;-73
2023/01/04 07:56:47;;;;;;;0.50;0.50;;;;;;;0.08;98.99;99663.19;5026799;28;20489;-71
2023/01/04 07:59:14;;;;;;;0.50;0.50;;;;;;;0.02;99.10;99665.59;5026484;28;20074;-70
2023/01/04 08:01:40;;;;;;;0.50;0.50;;;;;;;-0.02;99.13;99662.94;5026669;28;20093;-71
2023/01/04 08:04:07;;;;;;;0.50;0.50;;;;;;;-0.04;99.44;99651.00;5041629;28;20049;-71
2023/01/04 08:06:34;;;;;;;0.50;0.50;;;;;;;-0.06;99.62;99628.00;5026855;28;20071;-72
2023/01/04 08:09:00;;;;;;;0.50;0.50;;;;;;;0.30;99.06;99620.25;5026450;28;20021;-71
2023/01/04 08:11:25;;;;;;;0.60;0.60;;;;;;;0.20;98.88;99622.59;5026240;28;20081;-71
2023/01/04 08:13:51;;;;;;;0.50;0.50;;;;;;;0.16;99.17;99615.69;5026657;28;20040;-71
2023/01/04 08:16:18;;;;;;;0.52;0.52;;;;;;;0.05;99.46;99599.31;5026793;28;20080;-71
2023/01/04 08:18:44;;;;;;;0.50;0.50;;;;;;;0.03;99.66;99599.28;5026622;28;20049;-72
2023/01/04 08:21:09;;;;;;;0.50;0.50;;;;;;;0.04;100.00;99595.00;5026378;28;20021;-70
2023/01/04 08:23:36;;;;;;;0.50;0.50;;;;;;;0.42;99.07;99582.19;5026437;28;20034;-69
2023/01/04 08:26:08;;;;;;;0.50;0.50;;;;;;;0.54;97.21;99568.81;5026443;28;20029;-71
2023/01/04 08:28:34;;;;;;;0.43;0.43;;;;;;;0.39;98.15;99564.25;5026173;28;20108;-70
2023/01/04 08:31:05;;;;;;;0.50;0.50;;;;;;;0.20;98.90;99553.66;5026167;28;20022;-70
2023/01/04 08:33:31;;;;;;;0.60;0.60;;;;;;;0.15;99.40;99541.63;5026013;28;20026;-70
2023/01/04 08:36:33;;;;;;;0.50;0.50;;;;;;;0.58;98.68;99531.38;5026189;28;20026;-70
2023/01/04 08:39:03;;;;;;;;;;;;;;;0.82;95.91;99510.53;5019374;28;20497;-70
2023/01/04 08:41:30;;;;;;;0.60;0.60;;;;;;;0.71;96.06;99514.59;5026181;28;19913;-70
2023/01/04 08:43:56;;;;;;;0.50;0.50;;;;;;;0.80;96.36;99503.69;5026468;28;20029;-71
2023/01/04 08:46:21;;;;;;;0.50;0.50;;;;;;;0.63;96.45;99506.78;5025949;28;20466;-73
2023/01/04 08:48:46;;;;;;;0.50;0.50;;;;;;;0.56;98.39;99487.09;5026003;28;20516;-70
2023/01/04 08:51:14;;;;;;;0.50;0.50;;;;;;;0.73;97.24;99483.13;5026016;28;20014;-71
2023/01/04 08:53:40;;;;;;;0.50;0.50;;;;;;;0.66;97.47;99482.97;5026042;28;20032;-72
2023/01/04 08:56:06;;;;;;;0.50;0.50;;;;;;;0.62;98.04;99471.88;5025557;28;20018;-72
2023/01/04 08:58:33;;;;;;;0.50;0.50;;;;;;;0.55;99.14;99463.22;5025765;28;20159;-71
2023/01/04 09:01:01;;;;;;;0.50;0.50;;;;;;;0.72;98.24;99458.41;5025736;28;20037;-71
2023/01/04 09:03:26;;;;;;;0.50;0.50;;;;;;;0.73;98.60;99449.03;5025879;28;20106;-71
2023/01/04 09:05:52;;;;;;;0.50;0.50;;;;;;;0.72;98.18;99445.63;5040957;28;20029;-71
2023/01/04 09:08:17;;;;;;;0.50;0.50;;;;;;;0.64;99.41;99436.97;5025740;28;20470;-70
2023/01/04 09:10:43;;;;;;;0.50;0.50;;;;;;;0.78;98.92;99419.31;5025726;28;20033;-71
2023/01/04 09:13:08;;;;;;;0.50;0.50;;;;;;;0.78;99.21;99401.44;5025670;28;20064;-70
2023/01/04 09:15:34;;;;;;;0.50;0.50;;;;;;;0.82;98.81;99387.00;5025814;28;20032;-72
2023/01/04 09:18:00;;;;;;;0.50;0.50;;;;;;;0.79;98.34;99362.25;5025634;28;20042;-71
2023/01/04 09:20:26;;;;;;;0.50;0.50;;;;;;;0.99;97.21;99370.22;5025501;28;20033;-71
2023/01/04 09:22:52;;;;;;;0.50;0.50;;;;;;;0.91;97.86;99360.72;5025270;28;20030;-72
2023/01/04 09:25:17;;;;;;;0.50;0.50;;;;;;;1.06;98.02;99367.72;5025216;28;20026;-73
2023/01/04 09:27:43;;;;;;;0.50;0.50;;;;;;;0.93;98.30;99365.00;5025490;28;20101;-71
2023/01/04 09:30:09;;;;;;;0.50;0.50;;;;;;;1.11;97.67;99354.19;5023894;28;20075;-72
2023/01/04 09:32:35;;;;;;;0.50;0.50;;;;;;;0.83;98.81;99348.69;5025001;28;20030;-71
2023/01/04 09:35:00;;;;;;;0.50;0.50;;;;;;;1.06;98.63;99329.38;5025413;28;20025;-70
2023/01/04 09:37:26;;;;;;;0.50;0.50;;;;;;;1.12;98.40;99347.38;5025127;28;20045;-70
2023/01/04 09:39:51;;;;;;;0.50;0.50;;;;;;;1.20;98.21;99338.09;5025147;28;20026;-69
2023/01/04 09:42:25;;;;;;;0.50;0.50;;;;;;;1.35;96.69;99324.66;5024763;28;20089;-70
2023/01/04 09:44:57;;;;;;;0.50;0.50;;;;;;;1.22;96.99;99330.44;5025088;28;20022;-71
2023/01/04 09:47:28;;;;;;;0.50;0.50;;;;;;;1.02;98.38;99333.63;5029609;28;20030;-72
2023/01/04 09:50:11;;;;;;;0.60;0.60;;;;;;;1.08;97.83;99317.50;5029209;28;20022;-71
2023/01/04 09:52:53;;;;;;;0.50;0.50;;;;;;;1.22;97.51;99336.44;5029009;28;20032;-73
2023/01/04 09:55:21;;;;;;;0.60;0.60;;;;;;;1.27;96.93;99322.81;5029054;28;20028;-72
2023/01/04 09:58:25;;;;;;;0.50;0.50;;;;;;;1.23;98.31;99322.78;5029262;28;20042;-73
2023/01/04 10:00:59;;;;;;;0.50;0.50;;;;;;;1.04;99.09;99306.38;5026654;28;20042;-75
2023/01/04 10:03:30;;;;;;;0.60;0.60;;;;;;;1.13;99.04;99295.41;5028792;28;20060;-72
2023/01/04 10:05:55;;;;;;;0.50;0.50;;;;;;;1.13;99.50;99292.00;5028206;28;20057;-71
2023/01/04 10:08:21;;;;;;;0.40;0.40;;;;;;;0.99;100.00;99280.75;5027587;28;20029;-70
2023/01/04 10:11:13;;;;;;;0.50;0.50;;;;;;;1.36;99.03;99270.09;5028381;28;20029;-70
2023/01/04 10:14:04;;;;;;;0.60;0.60;;;;;;;1.25;99.30;99269.13;5028888;28;20030;-70
2023/01/04 10:17:07;;;;;;;0.60;0.60;;;;;;;1.65;96.94;99229.44;5029006;28;20036;-69
2023/01/04 10:20:02;;;;;;;0.52;0.52;;;;;;;1.32;98.13;99218.91;5028550;28;20048;-70
2023/01/04 10:22:49;;;;;;;0.60;0.60;;;;;;;1.51;98.27;99204.59;5028628;28;20022;-70
2023/01/04 10:25:53;;;;;;;0.60;0.60;;;;;;;1.32;98.43;99212.09;5028458;28;20110;-70
2023/01/04 10:28:29;;;;;;;0.50;0.50;;;;;;;1.21;99.39;99199.22;4986928;28;20041;-71
2023/01/04 10:31:12;;;;;;;0.50;0.50;;;;;;;1.35;99.44;99193.34;4986954;28;20039;-70
2023/01/04 10:33:48;;;;;;;0.50;0.50;;;;;;;1.32;99.75;99193.34;4987060;28;20090;-69
2023/01/04 10:36:19;;;;;;;0.50;0.50;;;;;;;1.25;100.00;99186.47;4987048;28;20445;-70
2023/01/04 10:38:46;;;;;;;0.70;0.70;;;;;;;1.31;100.00;99178.84;4987077;28;20089;-71
2023/01/04 10:41:20;;;;;;;0.60;0.60;;;;;;;1.55;98.42;99165.41;4986852;28;20442;-71
2023/01/04 10:44:09;;;;;;;0.50;0.50;;;;;;;1.51;97.75;99162.81;4986692;28;20038;-71
2023/01/04 10:47:16;;;;;;;0.50;0.50;;;;;;;1.42;98.35;99154.19;4986568;28;20035;-70
2023/01/04 10:49:48;;;;;;;0.50;0.50;;;;;;;1.51;98.73;99147.44;4985988;28;20049;-71
2023/01/04 10:52:21;;;;;;;0.60;0.60;;;;;;;1.68;98.17;99135.66;4986310;28;20026;-69
2023/01/04 10:54:53;;;;;;;0.50;0.50;;;;;;;1.41;98.96;99126.91;4986254;28;20108;-70
2023/01/04 10:57:35;;;;;;;0.60;0.60;;;;;;;1.40;99.46;99103.88;4969611;28;20042;-70
2023/01/04 11:00:10;;;;;;;0.60;0.60;;;;;;;1.40;99.44;99102.19;4986525;28;20033;-68
2023/01/04 11:02:53;;;;;;;0.60;0.60;;;;;;;1.31;100.00;99097.00;4986563;28;20039;-69
2023/01/04 11:05:21;;;;;;;0.60;0.60;;;;;;;1.54;99.89;99083.53;5028004;28;20032;-71
2023/01/04 11:08:00;;;;;;;0.55;0.55;;;;;;;1.88;98.23;99073.50;5027823;28;20033;-70
2023/01/04 11:10:30;;;;;;;0.50;0.50;;;;;;;1.71;97.57;99074.25;5027610;28;20049;-70
2023/01/04 11:12:57;;;;;;;0.50;0.50;;;;;;;1.68;97.94;99068.25;5028045;28;20030;-71
2023/01/04 11:15:22;;;;;;;0.60;0.60;;;;;;;1.54;99.29;99055.38;5027786;28;20025;-70
2023/01/04 11:17:49;;;;;;;0.60;0.60;;;;;;;1.67;99.12;99054.63;5027978;28;20029;-70
2023/01/04 11:20:14;;;;;;;0.50;0.50;;;;;;;1.55;99.78;99036.66;5027674;28;20053;-71
2023/01/04 11:22:47;;;;;;;0.50;0.50;;;;;;;1.55;99.98;99026.41;5027536;28;20026;-71
2023/01/04 11:25:17;;;;;;;0.50;0.50;;;;;;;1.64;100.00;99038.41;5027472;28;20019;-71
2023/01/04 11:28:05;;;;;;;0.50;0.50;;;;;;;1.86;99.58;99047.06;5027616;28;20025;-69
2023/01/04 11:30:41;;;;;;;0.50;0.50;;;;;;;1.76;99.37;99030.78;5027412;28;20022;-71
2023/01/04 11:33:20;;;;;;;0.50;0.50;;;;;;;1.69;99.88;99034.16;5027552;28;20030;-70
2023/01/04 11:35:48;;;;;;;0.50;0.50;;;;;;;1.73;99.61;99018.84;5027589;28;20022;-72
2023/01/04 11:38:18;;;;;;;0.50;0.50;;;;;;;1.78;100.00;99029.09;5026966;28;20068;-71
2023/01/04 11:41:00;;;;;;;0.50;0.50;;;;;;;1.84;99.66;99023.13;5026770;28;20038;-71
2023/01/04 11:43:30;;;;;;;0.70;0.70;;;;;;;1.85;100.00;99019.75;5027272;28;20022;-71
2023/01/04 11:46:13;;;;;;;0.50;0.50;;;;;;;1.79;100.00;99009.50;5026914;28;20033;-71
2023/01/04 11:48:44;;;;;;;0.50;0.50;;;;;;;1.84;100.00;98995.00;5027321;28;20026;-71
2023/01/04 11:51:27;;;;;;;0.50;0.50;;;;;;;2.04;98.57;98964.38;5026677;28;20390;-70
2023/01/04 11:54:03;;;;;;;0.50;0.50;;;;;;;1.81;100.00;98959.16;5027091;28;20032;-70
2023/01/04 11:56:33;;;;;;;0.50;0.50;;;;;;;1.84;100.00;98925.88;5026999;28;20024;-71
2023/01/04 11:59:08;;;;;;;0.50;0.50;;;;;;;1.91;99.89;98919.09;5026891;28;20092;-69
2023/01/04 12:01:41;;;;;;;0.50;0.50;;;;;;;1.78;100.00;98921.63;5026712;28;20034;-69
2023/01/04 12:04:18;;;;;;;0.50;0.50;;;;;;;1.75;100.00;98915.63;5026413;28;20036;-72
2023/01/04 12:06:52;;;;;;;0.50;0.50;;;;;;;2.26;98.17;98892.72;5027031;28;20034;-71
2023/01/04 12:09:19;;;;;;;0.60;0.60;;;;;;;2.08;99.12;98891.84;5025887;28;20022;-71
2023/01/04 12:11:56;;;;;;;0.50;0.50;;;;;;;2.08;98.94;98903.78;5026522;28;20026;-70
2023/01/04 12:14:26;;;;;;;0.50;0.50;;;;;;;1.93;99.87;98904.59;5026750;28;20038;-72
2023/01/04 12:17:03;;;;;;;0.52;0.52;;;;;;;1.91;100.00;98904.59;5026727;28;20026;-71
2023/01/04 12:19:29;;;;;;;0.40;0.40;;;;;;;1.97;100.00;98908.88;5026487;28;20441;-72
2023/01/04 12:22:00;;;;;;;0.50;0.50;;;;;;;2.40;98.82;98910.66;5041767;28;20560;-70
2023/01/04 12:24:32;;;;;;;0.70;0.70;;;;;;;2.31;98.51;98885.03;5041725;28;20097;-70
2023/01/04 12:26:59;;;;;;;0.60;0.60;;;;;;;2.29;97.89;98863.69;5025966;28;20037;-72
2023/01/04 12:29:43;;;;;;;0.50;0.50;;;;;;;2.15;98.77;98854.31;5026054;28;20033;-70
2023/01/04 12:32:11;;;;;;;0.50;0.50;;;;;;;2.18;98.87;98853.44;5026095;28;20033;-70